sensor_id;sensor_type;location;lat;lon;timestamp;temperature;humidity
11762;DHT22;5938;47.098;15.474;2023-05-20T00:01:24;12.30;99.90
11762;DHT22;5938;47.098;15.474;2023-05-20T00:05:27;12.10;99.90
11762;DHT22;5938;47.098;15.474;2023-05-20T00:09:31;12.10;99.90
11762;DHT22;5938;47.098;15.474;2023-05-20T00:13:37;12.10;99.90
11762;DHT22;5938;47.098;15.474;2023-05-20T00:17:40;12.10;99.90
11762;DHT22;5938;47.098;15.474;2023-05-20T00:21:44;12.00;99.90
11762;DHT22;5938;47.098;15.474;2023-05-20T00:25:48;12.10;99.90
11762;DHT22;5938;47.098;15.474;2023-05-20T00:29:54;12.10;99.90
11762;DHT22;5938;47.098;15.474;2023-05-20T00:33:57;12.10;99.90
11762;DHT22;5938;47.098;15.474;2023-05-20T00:38:01;12.00;99.90
11762;DHT22;5938;47.098;15.474;2023-05-20T00:42:05;12.00;99.90
11762;DHT22;5938;47.098;15.474;2023-05-20T00:46:10;12.10;99.90
11762;DHT22;5938;47.098;15.474;2023-05-20T00:50:13;12.10;99.90
11762;DHT22;5938;47.098;15.474;2023-05-20T00:54:18;12.00;99.90
11762;DHT22;5938;47.098;15.474;2023-05-20T00:58:22;11.90;99.90
11762;DHT22;5938;47.098;15.474;2023-05-20T01:02:27;11.90;99.90
11762;DHT22;5938;47.098;15.474;2023-05-20T01:06:31;11.80;99.90
11762;DHT22;5938;47.098;15.474;2023-05-20T01:10:38;11.80;99.90
11762;DHT22;5938;47.098;15.474;2023-05-20T01:14:48;11.80;99.90
11762;DHT22;5938;47.098;15.474;2023-05-20T01:18:55;11.80;99.90
11762;DHT22;5938;47.098;15.474;2023-05-20T01:23:01;11.70;99.90
11762;DHT22;5938;47.098;15.474;2023-05-20T01:27:05;11.70;99.90
11762;DHT22;5938;47.098;15.474;2023-05-20T01:31:19;11.70;99.90
11762;DHT22;5938;47.098;15.474;2023-05-20T01:35:25;11.80;99.90
11762;DHT22;5938;47.098;15.474;2023-05-20T01:39:34;11.80;99.90
11762;DHT22;5938;47.098;15.474;2023-05-20T01:43:39;11.70;99.90
11762;DHT22;5938;47.098;15.474;2023-05-20T01:47:44;11.80;99.90
11762;DHT22;5938;47.098;15.474;2023-05-20T01:51:48;11.80;99.90
11762;DHT22;5938;47.098;15.474;2023-05-20T01:55:53;11.80;99.90
11762;DHT22;5938;47.098;15.474;2023-05-20T01:59:56;11.70;99.90
11762;DHT22;5938;47.098;15.474;2023-05-20T02:04:00;11.70;99.90
11762;DHT22;5938;47.098;15.474;2023-05-20T02:08:04;11.80;99.90
11762;DHT22;5938;47.098;15.474;2023-05-20T02:12:09;11.80;99.90
11762;DHT22;5938;47.098;15.474;2023-05-20T02:16:17;11.80;99.90
11762;DHT22;5938;47.098;15.474;2023-05-20T02:20:21;11.80;99.90
11762;DHT22;5938;47.098;15.474;2023-05-20T02:24:24;11.80;99.90
11762;DHT22;5938;47.098;15.474;2023-05-20T02:28:30;11.80;99.90
11762;DHT22;5938;47.098;15.474;2023-05-20T02:32:34;11.80;99.90
11762;DHT22;5938;47.098;15.474;2023-05-20T02:36:39;11.70;99.90
11762;DHT22;5938;47.098;15.474;2023-05-20T02:40:43;11.80;99.90
11762;DHT22;5938;47.098;15.474;2023-05-20T02:44:48;11.70;99.90
11762;DHT22;5938;47.098;15.474;2023-05-20T02:48:54;11.70;99.90
11762;DHT22;5938;47.098;15.474;2023-05-20T02:52:57;11.70;99.90
11762;DHT22;5938;47.098;15.474;2023-05-20T02:57:01;11.70;99.90
11762;DHT22;5938;47.098;15.474;2023-05-20T03:01:06;11.80;99.90
11762;DHT22;5938;47.098;15.474;2023-05-20T03:05:10;11.90;99.90
11762;DHT22;5938;47.098;15.474;2023-05-20T03:09:13;12.00;99.90
11762;DHT22;5938;47.098;15.474;2023-05-20T03:13:17;12.10;99.90
11762;DHT22;5938;47.098;15.474;2023-05-20T03:17:22;12.10;99.90
11762;DHT22;5938;47.098;15.474;2023-05-20T03:21:26;12.10;99.90
11762;DHT22;5938;47.098;15.474;2023-05-20T03:25:30;12.00;99.90
11762;DHT22;5938;47.098;15.474;2023-05-20T03:29:34;12.10;99.90
11762;DHT22;5938;47.098;15.474;2023-05-20T03:33:40;12.00;99.90
11762;DHT22;5938;47.098;15.474;2023-05-20T03:37:43;11.90;99.90
11762;DHT22;5938;47.098;15.474;2023-05-20T03:41:47;11.90;99.90
11762;DHT22;5938;47.098;15.474;2023-05-20T03:45:52;11.80;99.90
11762;DHT22;5938;47.098;15.474;2023-05-20T03:50:06;11.80;99.90
11762;DHT22;5938;47.098;15.474;2023-05-20T03:59:39;11.80;99.90
11762;DHT22;5938;47.098;15.474;2023-05-20T04:03:50;12.00;99.90
11762;DHT22;5938;47.098;15.474;2023-05-20T04:07:56;11.90;99.90
11762;DHT22;5938;47.098;15.474;2023-05-20T04:12:01;12.00;99.90
11762;DHT22;5938;47.098;15.474;2023-05-20T04:16:05;12.10;99.90
11762;DHT22;5938;47.098;15.474;2023-05-20T04:20:10;12.10;99.90
11762;DHT22;5938;47.098;15.474;2023-05-20T04:24:15;12.20;99.90
11762;DHT22;5938;47.098;15.474;2023-05-20T04:28:19;12.30;99.90
11762;DHT22;5938;47.098;15.474;2023-05-20T04:32:25;12.40;99.90
11762;DHT22;5938;47.098;15.474;2023-05-20T04:36:29;12.50;99.90
11762;DHT22;5938;47.098;15.474;2023-05-20T04:40:34;12.50;99.90
11762;DHT22;5938;47.098;15.474;2023-05-20T04:44:39;12.50;99.90
11762;DHT22;5938;47.098;15.474;2023-05-20T04:48:43;12.60;99.90
11762;DHT22;5938;47.098;15.474;2023-05-20T04:52:49;12.70;99.90
11762;DHT22;5938;47.098;15.474;2023-05-20T04:56:54;12.70;99.90
11762;DHT22;5938;47.098;15.474;2023-05-20T05:00:57;12.80;99.90
11762;DHT22;5938;47.098;15.474;2023-05-20T05:05:04;13.00;99.90
11762;DHT22;5938;47.098;15.474;2023-05-20T05:14:34;13.50;99.90
11762;DHT22;5938;47.098;15.474;2023-05-20T05:19:05;13.60;99.90
11762;DHT22;5938;47.098;15.474;2023-05-20T05:23:13;13.80;99.90
11762;DHT22;5938;47.098;15.474;2023-05-20T05:27:17;14.10;99.90
11762;DHT22;5938;47.098;15.474;2023-05-20T05:31:22;14.20;99.90
11762;DHT22;5938;47.098;15.474;2023-05-20T05:35:25;14.20;99.90
11762;DHT22;5938;47.098;15.474;2023-05-20T05:39:29;14.20;99.90
11762;DHT22;5938;47.098;15.474;2023-05-20T05:43:33;14.20;99.90
11762;DHT22;5938;47.098;15.474;2023-05-20T05:47:56;14.20;99.90
11762;DHT22;5938;47.098;15.474;2023-05-20T05:52:00;14.30;99.90
11762;DHT22;5938;47.098;15.474;2023-05-20T05:56:04;14.40;99.90
11762;DHT22;5938;47.098;15.474;2023-05-20T06:00:08;14.60;99.90
11762;DHT22;5938;47.098;15.474;2023-05-20T06:04:14;14.80;99.90
11762;DHT22;5938;47.098;15.474;2023-05-20T06:08:17;15.10;99.90
11762;DHT22;5938;47.098;15.474;2023-05-20T06:12:21;15.10;99.90
11762;DHT22;5938;47.098;15.474;2023-05-20T06:16:24;15.20;99.90
11762;DHT22;5938;47.098;15.474;2023-05-20T06:20:36;15.70;99.90
11762;DHT22;5938;47.098;15.474;2023-05-20T06:24:50;15.90;99.90
11762;DHT22;5938;47.098;15.474;2023-05-20T06:28:54;16.30;99.90
11762;DHT22;5938;47.098;15.474;2023-05-20T06:32:58;16.60;99.90
11762;DHT22;5938;47.098;15.474;2023-05-20T06:37:03;16.70;99.90
11762;DHT22;5938;47.098;15.474;2023-05-20T06:41:07;16.60;99.90
11762;DHT22;5938;47.098;15.474;2023-05-20T06:45:11;16.60;99.90
11762;DHT22;5938;47.098;15.474;2023-05-20T06:49:15;16.80;99.90
11762;DHT22;5938;47.098;15.474;2023-05-20T06:53:20;17.10;99.90
11762;DHT22;5938;47.098;15.474;2023-05-20T06:57:23;17.40;99.90
11762;DHT22;5938;47.098;15.474;2023-05-20T07:01:27;17.90;99.90
11762;DHT22;5938;47.098;15.474;2023-05-20T07:05:31;18.00;99.90
11762;DHT22;5938;47.098;15.474;2023-05-20T07:09:36;17.70;99.90
11762;DHT22;5938;47.098;15.474;2023-05-20T07:13:39;17.50;99.90
11762;DHT22;5938;47.098;15.474;2023-05-20T07:17:43;17.40;99.90
11762;DHT22;5938;47.098;15.474;2023-05-20T07:21:46;17.70;99.90
11762;DHT22;5938;47.098;15.474;2023-05-20T07:25:53;17.90;99.90
11762;DHT22;5938;47.098;15.474;2023-05-20T07:29:56;18.40;99.90
11762;DHT22;5938;47.098;15.474;2023-05-20T07:34:00;18.80;99.90
11762;DHT22;5938;47.098;15.474;2023-05-20T07:38:03;19.40;99.90
11762;DHT22;5938;47.098;15.474;2023-05-20T07:42:08;20.10;99.90
11762;DHT22;5938;47.098;15.474;2023-05-20T07:46:12;20.60;99.90
11762;DHT22;5938;47.098;15.474;2023-05-20T07:50:20;20.60;99.90
11762;DHT22;5938;47.098;15.474;2023-05-20T07:54:24;20.70;99.90
11762;DHT22;5938;47.098;15.474;2023-05-20T07:58:30;20.70;99.90
11762;DHT22;5938;47.098;15.474;2023-05-20T08:02:35;20.90;99.90
11762;DHT22;5938;47.098;15.474;2023-05-20T08:06:38;21.30;99.90
11762;DHT22;5938;47.098;15.474;2023-05-20T08:10:43;21.70;99.90
11762;DHT22;5938;47.098;15.474;2023-05-20T08:14:48;22.20;98.80
11762;DHT22;5938;47.098;15.474;2023-05-20T08:18:51;22.10;99.90
11762;DHT22;5938;47.098;15.474;2023-05-20T08:22:55;21.20;99.90
11762;DHT22;5938;47.098;15.474;2023-05-20T08:26:58;21.60;99.90
11762;DHT22;5938;47.098;15.474;2023-05-20T08:31:03;22.30;98.00
11762;DHT22;5938;47.098;15.474;2023-05-20T08:35:08;22.30;98.80
11762;DHT22;5938;47.098;15.474;2023-05-20T08:39:11;22.40;98.60
11762;DHT22;5938;47.098;15.474;2023-05-20T08:43:15;22.10;98.60
11762;DHT22;5938;47.098;15.474;2023-05-20T08:47:20;22.00;98.60
11762;DHT22;5938;47.098;15.474;2023-05-20T08:51:26;22.60;97.80
11762;DHT22;5938;47.098;15.474;2023-05-20T08:55:34;23.40;96.40
11762;DHT22;5938;47.098;15.474;2023-05-20T08:59:41;23.10;96.70
11762;DHT22;5938;47.098;15.474;2023-05-20T09:03:46;22.60;97.00
11762;DHT22;5938;47.098;15.474;2023-05-20T09:07:50;22.70;97.30
11762;DHT22;5938;47.098;15.474;2023-05-20T09:11:54;25.30;94.70
11762;DHT22;5938;47.098;15.474;2023-05-20T09:15:59;25.10;93.40
11762;DHT22;5938;47.098;15.474;2023-05-20T09:20:08;25.10;93.00
11762;DHT22;5938;47.098;15.474;2023-05-20T09:24:12;24.70;93.70
11762;DHT22;5938;47.098;15.474;2023-05-20T09:28:15;24.10;93.10
11762;DHT22;5938;47.098;15.474;2023-05-20T09:32:20;23.80;92.70
11762;DHT22;5938;47.098;15.474;2023-05-20T09:36:28;26.70;92.20
11762;DHT22;5938;47.098;15.474;2023-05-20T09:40:32;28.90;86.00
11762;DHT22;5938;47.098;15.474;2023-05-20T09:44:41;30.10;80.80
11762;DHT22;5938;47.098;15.474;2023-05-20T09:48:47;29.00;80.90
11762;DHT22;5938;47.098;15.474;2023-05-20T09:52:53;28.60;83.70
11762;DHT22;5938;47.098;15.474;2023-05-20T09:56:59;27.00;86.20
11762;DHT22;5938;47.098;15.474;2023-05-20T10:01:02;25.50;86.70
11762;DHT22;5938;47.098;15.474;2023-05-20T10:05:10;24.90;90.10
11762;DHT22;5938;47.098;15.474;2023-05-20T10:09:28;26.20;87.20
11762;DHT22;5938;47.098;15.474;2023-05-20T10:13:44;27.30;82.80
11762;DHT22;5938;47.098;15.474;2023-05-20T10:18:00;28.60;78.70
11762;DHT22;5938;47.098;15.474;2023-05-20T10:22:11;29.10;78.70
11762;DHT22;5938;47.098;15.474;2023-05-20T10:26:16;29.70;77.70
11762;DHT22;5938;47.098;15.474;2023-05-20T10:30:21;30.60;75.10
11762;DHT22;5938;47.098;15.474;2023-05-20T10:34:24;29.50;77.90
11762;DHT22;5938;47.098;15.474;2023-05-20T10:38:28;28.60;77.50
11762;DHT22;5938;47.098;15.474;2023-05-20T10:42:33;27.80;78.80
11762;DHT22;5938;47.098;15.474;2023-05-20T10:46:37;27.40;79.70
11762;DHT22;5938;47.098;15.474;2023-05-20T10:51:02;29.00;78.60
11762;DHT22;5938;47.098;15.474;2023-05-20T10:55:06;28.90;78.30
11762;DHT22;5938;47.098;15.474;2023-05-20T10:59:22;29.70;77.60
11762;DHT22;5938;47.098;15.474;2023-05-20T11:03:26;29.80;74.10
11762;DHT22;5938;47.098;15.474;2023-05-20T11:07:31;30.10;74.50
11762;DHT22;5938;47.098;15.474;2023-05-20T11:11:35;31.70;72.60
11762;DHT22;5938;47.098;15.474;2023-05-20T11:15:41;31.80;70.40
11762;DHT22;5938;47.098;15.474;2023-05-20T11:19:45;30.40;70.80
11762;DHT22;5938;47.098;15.474;2023-05-20T11:23:51;29.60;75.00
11762;DHT22;5938;47.098;15.474;2023-05-20T11:27:54;29.10;73.90
11762;DHT22;5938;47.098;15.474;2023-05-20T11:32:00;29.00;74.60
11762;DHT22;5938;47.098;15.474;2023-05-20T11:36:04;27.40;77.50
11762;DHT22;5938;47.098;15.474;2023-05-20T11:40:24;28.50;76.50
11762;DHT22;5938;47.098;15.474;2023-05-20T11:44:34;30.50;73.20
11762;DHT22;5938;47.098;15.474;2023-05-20T11:48:39;31.10;72.30
11762;DHT22;5938;47.098;15.474;2023-05-20T11:52:59;34.10;68.50
11762;DHT22;5938;47.098;15.474;2023-05-20T11:57:04;33.10;64.90
11762;DHT22;5938;47.098;15.474;2023-05-20T12:01:08;32.40;66.90
11762;DHT22;5938;47.098;15.474;2023-05-20T12:05:25;30.80;68.40
11762;DHT22;5938;47.098;15.474;2023-05-20T12:09:28;28.80;73.00
11762;DHT22;5938;47.098;15.474;2023-05-20T12:13:32;27.80;77.70
11762;DHT22;5938;47.098;15.474;2023-05-20T12:17:45;27.60;78.90
11762;DHT22;5938;47.098;15.474;2023-05-20T12:21:51;29.30;75.30
11762;DHT22;5938;47.098;15.474;2023-05-20T12:25:55;29.20;73.30
11762;DHT22;5938;47.098;15.474;2023-05-20T12:29:58;29.70;71.90
11762;DHT22;5938;47.098;15.474;2023-05-20T12:34:02;29.70;73.60
11762;DHT22;5938;47.098;15.474;2023-05-20T12:38:08;29.00;73.20
11762;DHT22;5938;47.098;15.474;2023-05-20T12:42:12;29.00;77.80
11762;DHT22;5938;47.098;15.474;2023-05-20T12:46:16;30.70;74.40
11762;DHT22;5938;47.098;15.474;2023-05-20T12:50:20;31.50;69.40
11762;DHT22;5938;47.098;15.474;2023-05-20T12:54:25;30.60;72.10
11762;DHT22;5938;47.098;15.474;2023-05-20T12:58:29;30.40;68.60
11762;DHT22;5938;47.098;15.474;2023-05-20T13:02:33;29.80;71.80
11762;DHT22;5938;47.098;15.474;2023-05-20T13:06:44;29.10;73.20
11762;DHT22;5938;47.098;15.474;2023-05-20T13:10:49;29.00;74.60
11762;DHT22;5938;47.098;15.474;2023-05-20T13:14:53;28.40;75.50
11762;DHT22;5938;47.098;15.474;2023-05-20T13:18:56;27.90;79.10
11762;DHT22;5938;47.098;15.474;2023-05-20T13:23:00;28.40;76.30
11762;DHT22;5938;47.098;15.474;2023-05-20T13:27:05;28.60;75.00
11762;DHT22;5938;47.098;15.474;2023-05-20T13:31:09;27.80;74.90
11762;DHT22;5938;47.098;15.474;2023-05-20T13:35:13;29.10;75.00
11762;DHT22;5938;47.098;15.474;2023-05-20T13:39:17;30.40;70.20
11762;DHT22;5938;47.098;15.474;2023-05-20T13:43:22;31.10;74.00
11762;DHT22;5938;47.098;15.474;2023-05-20T13:47:26;30.00;72.50
11762;DHT22;5938;47.098;15.474;2023-05-20T13:51:30;29.50;71.90
11762;DHT22;5938;47.098;15.474;2023-05-20T13:55:35;28.30;72.80
11762;DHT22;5938;47.098;15.474;2023-05-20T13:59:40;27.20;77.30
11762;DHT22;5938;47.098;15.474;2023-05-20T14:03:44;26.60;78.00
11762;DHT22;5938;47.098;15.474;2023-05-20T14:07:48;26.90;80.30
11762;DHT22;5938;47.098;15.474;2023-05-20T14:11:51;27.60;80.10
11762;DHT22;5938;47.098;15.474;2023-05-20T14:15:56;27.80;77.80
11762;DHT22;5938;47.098;15.474;2023-05-20T14:20:00;26.80;79.70
11762;DHT22;5938;47.098;15.474;2023-05-20T14:24:04;26.50;81.10
11762;DHT22;5938;47.098;15.474;2023-05-20T14:28:08;25.90;84.50
11762;DHT22;5938;47.098;15.474;2023-05-20T14:32:13;27.00;81.50
11762;DHT22;5938;47.098;15.474;2023-05-20T14:36:16;27.90;77.80
11762;DHT22;5938;47.098;15.474;2023-05-20T14:40:20;28.10;78.60
11762;DHT22;5938;47.098;15.474;2023-05-20T14:44:24;27.00;81.10
11762;DHT22;5938;47.098;15.474;2023-05-20T14:48:29;25.50;85.50
11762;DHT22;5938;47.098;15.474;2023-05-20T14:52:33;24.60;87.10
11762;DHT22;5938;47.098;15.474;2023-05-20T14:56:36;24.00;90.10
11762;DHT22;5938;47.098;15.474;2023-05-20T15:00:41;23.30;91.20
11762;DHT22;5938;47.098;15.474;2023-05-20T15:04:47;23.40;91.10
11762;DHT22;5938;47.098;15.474;2023-05-20T15:08:51;23.60;90.80
11762;DHT22;5938;47.098;15.474;2023-05-20T15:12:54;25.00;90.30
11762;DHT22;5938;47.098;15.474;2023-05-20T15:16:58;26.50;87.30
11762;DHT22;5938;47.098;15.474;2023-05-20T15:21:04;26.10;86.90
11762;DHT22;5938;47.098;15.474;2023-05-20T15:25:08;25.70;85.80
11762;DHT22;5938;47.098;15.474;2023-05-20T15:29:11;25.80;86.90
11762;DHT22;5938;47.098;15.474;2023-05-20T15:33:15;26.70;86.50
11762;DHT22;5938;47.098;15.474;2023-05-20T15:37:20;25.90;85.50
11762;DHT22;5938;47.098;15.474;2023-05-20T15:41:23;25.90;85.80
11762;DHT22;5938;47.098;15.474;2023-05-20T15:45:27;26.10;87.20
11762;DHT22;5938;47.098;15.474;2023-05-20T15:49:30;26.00;87.10
11762;DHT22;5938;47.098;15.474;2023-05-20T15:53:35;25.50;86.80
11762;DHT22;5938;47.098;15.474;2023-05-20T15:57:41;24.40;90.30
11762;DHT22;5938;47.098;15.474;2023-05-20T16:01:45;24.40;91.30
11762;DHT22;5938;47.098;15.474;2023-05-20T16:05:49;24.60;90.50
11762;DHT22;5938;47.098;15.474;2023-05-20T16:09:54;24.20;90.70
11762;DHT22;5938;47.098;15.474;2023-05-20T16:13:58;23.60;91.90
11762;DHT22;5938;47.098;15.474;2023-05-20T16:18:02;22.90;96.10
11762;DHT22;5938;47.098;15.474;2023-05-20T16:22:06;20.90;99.90
11762;DHT22;5938;47.098;15.474;2023-05-20T16:26:11;18.80;99.90
11762;DHT22;5938;47.098;15.474;2023-05-20T16:30:15;17.90;99.90
11762;DHT22;5938;47.098;15.474;2023-05-20T16:34:28;17.50;99.90
11762;DHT22;5938;47.098;15.474;2023-05-20T16:38:32;17.30;99.90
11762;DHT22;5938;47.098;15.474;2023-05-20T16:42:40;17.20;99.90
11762;DHT22;5938;47.098;15.474;2023-05-20T16:46:46;17.00;99.90
11762;DHT22;5938;47.098;15.474;2023-05-20T16:50:50;16.90;99.90
11762;DHT22;5938;47.098;15.474;2023-05-20T16:54:55;16.70;99.90
11762;DHT22;5938;47.098;15.474;2023-05-20T16:59:06;16.70;99.90
11762;DHT22;5938;47.098;15.474;2023-05-20T17:03:09;16.80;99.90
11762;DHT22;5938;47.098;15.474;2023-05-20T17:07:13;16.70;99.90
11762;DHT22;5938;47.098;15.474;2023-05-20T17:11:17;16.70;99.90
11762;DHT22;5938;47.098;15.474;2023-05-20T17:15:22;16.70;99.90
11762;DHT22;5938;47.098;15.474;2023-05-20T17:19:26;16.70;99.90
11762;DHT22;5938;47.098;15.474;2023-05-20T17:23:30;16.60;99.90
11762;DHT22;5938;47.098;15.474;2023-05-20T17:27:34;16.40;99.90
11762;DHT22;5938;47.098;15.474;2023-05-20T17:31:39;16.30;99.90
11762;DHT22;5938;47.098;15.474;2023-05-20T17:35:44;16.20;99.90
11762;DHT22;5938;47.098;15.474;2023-05-20T17:39:48;16.20;99.90
11762;DHT22;5938;47.098;15.474;2023-05-20T17:43:52;16.10;99.90
11762;DHT22;5938;47.098;15.474;2023-05-20T17:47:59;15.80;99.90
11762;DHT22;5938;47.098;15.474;2023-05-20T17:52:03;15.80;99.90
11762;DHT22;5938;47.098;15.474;2023-05-20T17:56:08;15.70;99.90
11762;DHT22;5938;47.098;15.474;2023-05-20T18:00:14;15.60;99.90
11762;DHT22;5938;47.098;15.474;2023-05-20T18:04:24;15.60;99.90
11762;DHT22;5938;47.098;15.474;2023-05-20T18:08:29;15.60;99.90
11762;DHT22;5938;47.098;15.474;2023-05-20T18:12:34;15.40;99.90
11762;DHT22;5938;47.098;15.474;2023-05-20T18:16:39;15.40;99.90
11762;DHT22;5938;47.098;15.474;2023-05-20T18:20:44;15.40;99.90
11762;DHT22;5938;47.098;15.474;2023-05-20T18:24:49;15.40;99.90
11762;DHT22;5938;47.098;15.474;2023-05-20T18:28:53;15.30;99.90
11762;DHT22;5938;47.098;15.474;2023-05-20T18:32:57;15.20;99.90
11762;DHT22;5938;47.098;15.474;2023-05-20T18:37:04;15.30;99.90
11762;DHT22;5938;47.098;15.474;2023-05-20T18:41:08;15.20;99.90
11762;DHT22;5938;47.098;15.474;2023-05-20T18:45:12;15.20;99.90
11762;DHT22;5938;47.098;15.474;2023-05-20T18:49:16;15.10;99.90
11762;DHT22;5938;47.098;15.474;2023-05-20T18:53:22;14.90;99.90
11762;DHT22;5938;47.098;15.474;2023-05-20T18:57:27;15.00;99.90
11762;DHT22;5938;47.098;15.474;2023-05-20T19:01:31;15.10;99.90
11762;DHT22;5938;47.098;15.474;2023-05-20T19:05:38;15.20;99.90
11762;DHT22;5938;47.098;15.474;2023-05-20T19:09:44;15.00;99.90
11762;DHT22;5938;47.098;15.474;2023-05-20T19:13:48;15.00;99.90
11762;DHT22;5938;47.098;15.474;2023-05-20T19:17:52;15.00;99.90
11762;DHT22;5938;47.098;15.474;2023-05-20T19:21:57;14.90;99.90
11762;DHT22;5938;47.098;15.474;2023-05-20T19:26:03;14.90;99.90
11762;DHT22;5938;47.098;15.474;2023-05-20T19:30:08;14.80;99.90
11762;DHT22;5938;47.098;15.474;2023-05-20T19:34:13;14.70;99.90
11762;DHT22;5938;47.098;15.474;2023-05-20T19:38:18;14.70;99.90
11762;DHT22;5938;47.098;15.474;2023-05-20T19:42:25;14.60;99.90
11762;DHT22;5938;47.098;15.474;2023-05-20T19:46:30;14.60;99.90
11762;DHT22;5938;47.098;15.474;2023-05-20T19:50:34;14.60;99.90
11762;DHT22;5938;47.098;15.474;2023-05-20T19:54:39;14.50;99.90
11762;DHT22;5938;47.098;15.474;2023-05-20T19:58:46;14.40;99.90
11762;DHT22;5938;47.098;15.474;2023-05-20T20:02:50;14.30;99.90
11762;DHT22;5938;47.098;15.474;2023-05-20T20:06:55;14.40;99.90
11762;DHT22;5938;47.098;15.474;2023-05-20T20:10:59;14.30;99.90
11762;DHT22;5938;47.098;15.474;2023-05-20T20:15:07;14.30;99.90
11762;DHT22;5938;47.098;15.474;2023-05-20T20:19:12;14.30;99.90
11762;DHT22;5938;47.098;15.474;2023-05-20T20:23:21;14.30;99.90
11762;DHT22;5938;47.098;15.474;2023-05-20T20:27:26;14.20;99.90
11762;DHT22;5938;47.098;15.474;2023-05-20T20:31:33;14.10;99.90
11762;DHT22;5938;47.098;15.474;2023-05-20T20:35:42;14.00;99.90
11762;DHT22;5938;47.098;15.474;2023-05-20T20:39:48;14.00;99.90
11762;DHT22;5938;47.098;15.474;2023-05-20T20:43:53;14.00;99.90
11762;DHT22;5938;47.098;15.474;2023-05-20T20:48:00;14.00;99.90
11762;DHT22;5938;47.098;15.474;2023-05-20T20:52:07;13.90;99.90
11762;DHT22;5938;47.098;15.474;2023-05-20T20:56:12;13.80;99.90
11762;DHT22;5938;47.098;15.474;2023-05-20T21:00:18;13.80;99.90
11762;DHT22;5938;47.098;15.474;2023-05-20T21:04:25;13.80;99.90
11762;DHT22;5938;47.098;15.474;2023-05-20T21:08:29;13.80;99.90
11762;DHT22;5938;47.098;15.474;2023-05-20T21:12:33;13.60;99.90
11762;DHT22;5938;47.098;15.474;2023-05-20T21:16:36;13.70;99.90
11762;DHT22;5938;47.098;15.474;2023-05-20T21:20:41;13.70;99.90
11762;DHT22;5938;47.098;15.474;2023-05-20T21:24:46;13.50;99.90
11762;DHT22;5938;47.098;15.474;2023-05-20T21:28:50;13.40;99.90
11762;DHT22;5938;47.098;15.474;2023-05-20T21:32:54;13.30;99.90
11762;DHT22;5938;47.098;15.474;2023-05-20T21:36:59;13.20;99.90
11762;DHT22;5938;47.098;15.474;2023-05-20T21:41:02;13.00;99.90
11762;DHT22;5938;47.098;15.474;2023-05-20T21:45:07;13.00;99.90
11762;DHT22;5938;47.098;15.474;2023-05-20T21:49:11;12.90;99.90
11762;DHT22;5938;47.098;15.474;2023-05-20T21:53:16;12.80;99.90
11762;DHT22;5938;47.098;15.474;2023-05-20T21:57:20;12.70;99.90
11762;DHT22;5938;47.098;15.474;2023-05-20T22:01:23;12.60;99.90
11762;DHT22;5938;47.098;15.474;2023-05-20T22:05:27;12.60;99.90
11762;DHT22;5938;47.098;15.474;2023-05-20T22:09:32;12.50;99.90
11762;DHT22;5938;47.098;15.474;2023-05-20T22:13:36;12.50;99.90
11762;DHT22;5938;47.098;15.474;2023-05-20T22:17:42;12.30;99.90
11762;DHT22;5938;47.098;15.474;2023-05-20T22:21:48;12.30;99.90
11762;DHT22;5938;47.098;15.474;2023-05-20T22:25:53;12.20;99.90
11762;DHT22;5938;47.098;15.474;2023-05-20T22:29:57;12.20;99.90
11762;DHT22;5938;47.098;15.474;2023-05-20T22:34:01;12.10;99.90
11762;DHT22;5938;47.098;15.474;2023-05-20T22:38:05;12.10;99.90
11762;DHT22;5938;47.098;15.474;2023-05-20T22:42:10;12.00;99.90
11762;DHT22;5938;47.098;15.474;2023-05-20T22:46:14;11.90;99.90
11762;DHT22;5938;47.098;15.474;2023-05-20T22:50:17;11.80;99.90
11762;DHT22;5938;47.098;15.474;2023-05-20T22:54:21;11.80;99.90
11762;DHT22;5938;47.098;15.474;2023-05-20T22:58:26;11.70;99.90
11762;DHT22;5938;47.098;15.474;2023-05-20T23:02:30;11.70;99.90
11762;DHT22;5938;47.098;15.474;2023-05-20T23:06:34;11.60;99.90
11762;DHT22;5938;47.098;15.474;2023-05-20T23:10:39;11.60;99.90
11762;DHT22;5938;47.098;15.474;2023-05-20T23:14:44;11.60;99.90
11762;DHT22;5938;47.098;15.474;2023-05-20T23:18:47;11.50;99.90
11762;DHT22;5938;47.098;15.474;2023-05-20T23:22:51;11.50;99.90
11762;DHT22;5938;47.098;15.474;2023-05-20T23:26:55;11.40;99.90
11762;DHT22;5938;47.098;15.474;2023-05-20T23:31:01;11.30;99.90
11762;DHT22;5938;47.098;15.474;2023-05-20T23:35:06;11.30;99.90
11762;DHT22;5938;47.098;15.474;2023-05-20T23:39:12;11.20;99.90
11762;DHT22;5938;47.098;15.474;2023-05-20T23:43:19;11.20;99.90
11762;DHT22;5938;47.098;15.474;2023-05-20T23:47:24;11.20;99.90
11762;DHT22;5938;47.098;15.474;2023-05-20T23:51:30;11.10;99.90
11762;DHT22;5938;47.098;15.474;2023-05-20T23:55:36;11.10;99.90
11762;DHT22;5938;47.098;15.474;2023-05-20T23:59:40;11.00;99.90
